Time;durP1;ratioP1;P1;durP2;ratioP2;P2;SDS_P1;SDS_P2;PMS_P1;PMS_P2;Temp;Humidity;BMP_temperature;BMP_pressure;BME280_temperature;BME280_humidity;BME280_pressure;Samples;Min_cycle;Max_cycle;Signal;HPM_P1;HPM_P2
2022/07/14 00:00:26;;;;;;;10.82;2.40;;;15.40;99.90;;;;;;5088389;28;20044;-75
2022/07/14 00:02:52;;;;;;;12.57;2.25;;;15.40;99.90;;;;;;5090213;28;20445;-76
2022/07/14 00:05:17;;;;;;;11.50;2.65;;;15.70;99.90;;;;;;5091896;28;20039;-75
2022/07/14 00:07:43;;;;;;;9.88;2.08;;;15.50;99.90;;;;;;5086989;28;20044;-76
2022/07/14 00:10:09;;;;;;;8.73;2.15;;;16.40;99.90;;;;;;5087376;28;20502;-75
2022/07/14 00:12:35;;;;;;;9.15;2.03;;;15.50;99.90;;;;;;5085240;28;20079;-74
2022/07/14 00:15:04;;;;;;;8.68;1.98;;;15.40;99.90;;;;;;5083277;28;20044;-76
2022/07/14 00:17:29;;;;;;;11.50;2.05;;;15.50;99.90;;;;;;5081609;28;20044;-74
2022/07/14 00:19:55;;;;;;;13.38;2.28;;;15.70;99.90;;;;;;5090183;28;20491;-75
2022/07/14 00:22:24;;;;;;;8.25;2.30;;;15.50;99.90;;;;;;5066784;28;20707;-75
2022/07/14 00:24:49;;;;;;;13.55;2.65;;;15.90;99.90;;;;;;5084757;28;20039;-72
2022/07/14 00:27:15;;;;;;;13.50;2.05;;;16.50;99.90;;;;;;5090321;28;20039;-75
2022/07/14 00:29:41;;;;;;;14.88;2.92;;;15.50;99.90;;;;;;5089509;28;20044;-72
2022/07/14 00:32:07;;;;;;;11.63;2.63;;;15.50;99.90;;;;;;5089842;28;20464;-75
2022/07/14 00:34:32;;;;;;;10.02;2.28;;;15.70;99.90;;;;;;5091452;28;20371;-75
2022/07/14 00:36:58;;;;;;;6.53;1.90;;;15.40;99.90;;;;;;5089483;28;20043;-75
2022/07/14 00:39:24;;;;;;;6.35;1.70;;;15.40;99.90;;;;;;5105753;28;20036;-75
2022/07/14 00:41:50;;;;;;;8.90;1.88;;;15.90;99.90;;;;;;5070676;28;20046;-73
2022/07/14 00:44:16;;;;;;;8.98;2.33;;;15.30;99.90;;;;;;5086768;28;20123;-72
2022/07/14 00:46:41;;;;;;;11.48;2.35;;;15.30;99.90;;;;;;5089993;28;20071;-74
2022/07/14 00:49:07;;;;;;;14.30;3.30;;;15.30;99.90;;;;;;5080228;28;20063;-74
2022/07/14 00:51:33;;;;;;;8.07;2.15;;;15.30;99.90;;;;;;5089740;28;20097;-75
2022/07/14 00:53:59;;;;;;;12.20;2.42;;;15.20;99.90;;;;;;5091733;28;20044;-76
2022/07/14 00:56:26;;;;;;;9.15;2.08;;;15.20;99.90;;;;;;5085685;28;20036;-74
2022/07/14 00:58:51;;;;;;;7.13;1.77;;;15.10;99.90;;;;;;5068675;28;20044;-75
2022/07/14 01:01:17;;;;;;;9.88;2.80;;;15.20;99.90;;;;;;5088197;28;20055;-75
2022/07/14 01:03:43;;;;;;;10.95;2.20;;;15.90;99.90;;;;;;5071216;28;20048;-75
2022/07/14 01:06:08;;;;;;;5.93;1.73;;;15.10;99.90;;;;;;5087577;28;20040;-75
2022/07/14 01:08:34;;;;;;;11.07;2.03;;;15.10;99.90;;;;;;5091871;28;20048;-75
2022/07/14 01:11:00;;;;;;;10.40;2.55;;;15.10;99.90;;;;;;5089203;28;20401;-74
2022/07/14 01:13:25;;;;;;;6.32;2.00;;;15.10;99.90;;;;;;5089788;28;20127;-75
2022/07/14 01:15:51;;;;;;;7.15;1.52;;;15.10;99.90;;;;;;5070834;28;20178;-74
2022/07/14 01:18:17;;;;;;;8.65;2.83;;;15.00;99.90;;;;;;5088240;28;20036;-75
2022/07/14 01:20:43;;;;;;;8.52;2.35;;;15.00;99.90;;;;;;5081219;28;20495;-74
2022/07/14 01:23:08;;;;;;;10.00;2.53;;;15.40;99.90;;;;;;5086485;28;20108;-74
2022/07/14 01:25:34;;;;;;;10.82;2.60;;;14.90;99.90;;;;;;5089537;28;20078;-75
2022/07/14 01:27:59;;;;;;;9.63;2.13;;;14.90;99.90;;;;;;5089176;28;20087;-75
2022/07/14 01:30:26;;;;;;;7.53;2.15;;;14.70;99.90;;;;;;5079373;28;20080;-74
2022/07/14 01:32:52;;;;;;;7.88;1.95;;;14.80;99.90;;;;;;5089683;28;20074;-73
2022/07/14 01:35:18;;;;;;;7.55;2.00;;;15.60;99.90;;;;;;5064148;28;20491;-74
2022/07/14 01:37:44;;;;;;;8.57;1.90;;;14.80;99.90;;;;;;5089962;28;20388;-74
2022/07/14 01:40:10;;;;;;;7.00;1.85;;;14.70;99.90;;;;;;5089179;28;20043;-74
2022/07/14 01:42:36;;;;;;;10.32;2.50;;;14.70;99.90;;;;;;5087476;28;20447;-74
2022/07/14 01:45:02;;;;;;;9.25;2.97;;;15.80;99.90;;;;;;5090174;28;20052;-74
2022/07/14 01:47:28;;;;;;;8.18;2.30;;;14.50;99.90;;;;;;5097823;28;20093;-74
2022/07/14 01:49:54;;;;;;;9.07;2.40;;;14.40;99.90;;;;;;5086250;28;20111;-74
2022/07/14 01:52:19;;;;;;;11.75;2.10;;;14.40;99.90;;;;;;5082438;28;20047;-74
2022/07/14 01:54:45;;;;;;;10.18;2.47;;;15.10;99.90;;;;;;5089454;28;20478;-75
2022/07/14 01:57:12;;;;;;;8.20;2.35;;;14.30;99.90;;;;;;5086915;28;20043;-75
2022/07/14 01:59:38;;;;;;;10.38;2.58;;;15.20;99.90;;;;;;5066318;28;20036;-74
2022/07/14 02:02:03;;;;;;;10.48;2.08;;;14.30;99.90;;;;;;5089335;28;20077;-74
2022/07/14 02:04:29;;;;;;;11.18;2.72;;;14.90;99.90;;;;;;5082070;28;20067;-75
2022/07/14 02:06:56;;;;;;;9.77;2.47;;;14.20;99.90;;;;;;5089520;28;20055;-76
2022/07/14 02:09:22;;;;;;;8.30;2.58;;;14.20;99.90;;;;;;5088582;28;20052;-75
2022/07/14 02:14:33;;;;;;;;;;;14.30;99.90;;;;;;5089524;28;20048;-74
2022/07/14 02:16:59;;;;;;;12.48;2.97;;;14.30;99.90;;;;;;5088488;28;19926;-74
2022/07/14 02:19:25;;;;;;;7.97;2.22;;;14.20;99.90;;;;;;5086835;28;20118;-73
2022/07/14 02:21:52;;;;;;;14.00;2.75;;;14.20;99.90;;;;;;5084754;28;20455;-74
2022/07/14 02:24:20;;;;;;;6.65;2.15;;;14.20;99.90;;;;;;5090077;28;20059;-73
2022/07/14 02:26:46;;;;;;;8.10;2.40;;;15.00;99.90;;;;;;5097995;28;20126;-74
2022/07/14 02:29:12;;;;;;;10.30;2.00;;;14.00;99.90;;;;;;5089436;28;20040;-74
2022/07/14 02:31:38;;;;;;;9.52;2.47;;;14.50;99.90;;;;;;5081618;28;20044;-74
2022/07/14 02:34:04;;;;;;;11.50;2.30;;;14.20;99.90;;;;;;5089843;28;20094;-75
2022/07/14 02:36:33;;;;;;;13.68;3.40;;;14.20;99.90;;;;;;5079147;28;20039;-75
2022/07/14 02:38:59;;;;;;;5.78;2.42;;;14.60;99.90;;;;;;5089067;28;20087;-75
2022/07/14 02:41:25;;;;;;;10.75;3.30;;;14.10;99.90;;;;;;5088956;28;20077;-75
2022/07/14 02:43:50;;;;;;;9.10;1.83;;;14.10;99.90;;;;;;5087047;28;20115;-75
2022/07/14 02:46:16;;;;;;;8.63;2.33;;;14.10;99.90;;;;;;5088530;28;20388;-74
2022/07/14 02:48:42;;;;;;;5.57;1.85;;;14.00;99.90;;;;;;5085459;28;20032;-75
2022/07/14 02:51:09;;;;;;;5.63;2.38;;;14.40;99.90;;;;;;5066457;28;20502;-75
2022/07/14 02:53:36;;;;;;;8.18;2.30;;;14.00;99.90;;;;;;5089524;28;20044;-75
2022/07/14 02:56:06;;;;;;;7.35;1.80;;;14.80;99.90;;;;;;5085567;28;20484;-74
2022/07/14 02:58:32;;;;;;;7.20;1.88;;;14.00;99.90;;;;;;5081443;28;20040;-74
2022/07/14 03:00:58;;;;;;;3.50;1.38;;;14.20;99.90;;;;;;5085937;28;20066;-75
2022/07/14 03:03:24;;;;;;;8.55;2.35;;;13.90;99.90;;;;;;5090236;28;20498;-74
2022/07/14 03:05:50;;;;;;;8.45;2.28;;;13.90;99.90;;;;;;5088186;28;20047;-75
2022/07/14 03:08:16;;;;;;;7.53;1.92;;;13.90;99.90;;;;;;5083144;28;20048;-75
2022/07/14 03:10:43;;;;;;;9.25;2.50;;;13.90;99.90;;;;;;5088748;28;20169;-76
2022/07/14 03:13:09;;;;;;;8.70;3.00;;;13.80;99.90;;;;;;5093115;28;20055;-75
2022/07/14 03:15:36;;;;;;;10.35;2.60;;;13.80;99.90;;;;;;5087126;28;20043;-75
2022/07/14 03:18:04;;;;;;;11.45;2.42;;;14.30;99.90;;;;;;5090663;28;20927;-75
2022/07/14 03:20:30;;;;;;;8.43;2.10;;;13.70;99.90;;;;;;5090445;28;20049;-76
2022/07/14 03:22:56;;;;;;;8.70;2.53;;;13.70;99.90;;;;;;5091921;28;20060;-76
2022/07/14 03:25:24;;;;;;;8.77;2.10;;;13.50;99.90;;;;;;5092224;28;20491;-76
2022/07/14 03:27:50;;;;;;;9.70;2.35;;;13.60;99.90;;;;;;5091774;28;20072;-75
2022/07/14 03:30:18;;;;;;;8.40;1.83;;;14.30;99.90;;;;;;5092305;28;20042;-75
2022/07/14 03:32:44;;;;;;;6.28;1.73;;;13.40;99.90;;;;;;5091090;28;20047;-74
2022/07/14 03:35:10;;;;;;;5.32;2.00;;;14.20;99.90;;;;;;5093012;28;20038;-74
2022/07/14 03:37:35;;;;;;;6.78;1.83;;;13.40;99.90;;;;;;5093261;28;20036;-73
2022/07/14 03:40:02;;;;;;;5.57;1.55;;;13.40;99.90;;;;;;5085656;28;20056;-75
2022/07/14 03:42:28;;;;;;;8.20;2.47;;;13.30;99.90;;;;;;5088818;28;20036;-75
2022/07/14 03:44:55;;;;;;;6.07;2.03;;;13.40;99.90;;;;;;5092188;28;20032;-74
2022/07/14 03:47:21;;;;;;;6.55;1.85;;;13.90;99.90;;;;;;5091855;28;20097;-76
2022/07/14 03:49:47;;;;;;;7.72;2.40;;;13.30;99.90;;;;;;5083962;28;20510;-75
2022/07/14 03:52:13;;;;;;;4.53;1.88;;;13.30;99.90;;;;;;5093194;28;20044;-75
2022/07/14 03:54:42;;;;;;;5.03;2.20;;;13.30;99.90;;;;;;5091517;28;20040;-73
2022/07/14 03:57:07;;;;;;;4.10;2.20;;;13.30;99.90;;;;;;5092639;28;20044;-75
2022/07/14 03:59:39;;;;;;;8.65;2.50;;;14.10;99.90;;;;;;5093354;28;20461;-75
2022/07/14 04:02:05;;;;;;;5.53;2.35;;;14.30;99.90;;;;;;5090813;28;20048;-75
2022/07/14 04:04:31;;;;;;;8.13;1.90;;;13.10;99.90;;;;;;5092977;28;20032;-76
2022/07/14 04:06:56;;;;;;;4.72;1.98;;;13.00;99.90;;;;;;5089367;28;20063;-76
2022/07/14 04:09:22;;;;;;;6.20;1.67;;;13.20;99.90;;;;;;5092568;28;20097;-75
2022/07/14 04:11:48;;;;;;;4.72;1.73;;;13.00;99.90;;;;;;5090088;28;20376;-75
2022/07/14 04:14:14;;;;;;;5.53;2.70;;;13.10;99.90;;;;;;5092282;28;20495;-75
2022/07/14 04:16:42;;;;;;;4.57;1.67;;;13.20;99.90;;;;;;5092532;28;20036;-75
2022/07/14 04:19:08;;;;;;;6.78;2.30;;;13.10;99.90;;;;;;5092537;28;20368;-75
2022/07/14 04:21:36;;;;;;;5.18;2.78;;;13.10;99.90;;;;;;5079353;28;20043;-74
2022/07/14 04:24:04;;;;;;;5.88;2.50;;;13.90;99.90;;;;;;5087104;28;20058;-74
2022/07/14 04:26:30;;;;;;;8.45;2.42;;;13.10;99.90;;;;;;5088370;28;20039;-74
2022/07/14 04:28:58;;;;;;;5.80;2.10;;;13.10;99.90;;;;;;5091524;28;20122;-73
2022/07/14 04:31:24;;;;;;;9.15;3.10;;;14.20;99.90;;;;;;5090596;28;20507;-73
2022/07/14 04:33:50;;;;;;;11.45;2.70;;;13.10;99.90;;;;;;5092055;28;20507;-74
2022/07/14 04:36:16;;;;;;;9.85;2.85;;;13.10;99.90;;;;;;5090158;28;20094;-73
2022/07/14 04:38:42;;;;;;;10.57;2.85;;;13.10;99.90;;;;;;5088729;28;20032;-75
2022/07/14 04:41:08;;;;;;;10.77;2.65;;;13.20;99.90;;;;;;5091783;28;20494;-74
2022/07/14 04:43:37;;;;;;;7.25;2.90;;;13.10;99.90;;;;;;5088561;28;20462;-75
2022/07/14 04:46:02;;;;;;;7.50;2.67;;;14.10;99.90;;;;;;5091873;28;20093;-72
2022/07/14 04:48:28;;;;;;;8.23;2.50;;;13.10;99.90;;;;;;5091767;28;20039;-73
2022/07/14 04:53:39;;;;;;;7.43;2.58;;;13.10;99.90;;;;;;5086554;28;20040;-73
2022/07/14 04:56:04;;;;;;;10.27;3.30;;;13.10;99.90;;;;;;5078262;28;20086;-75
2022/07/14 04:58:31;;;;;;;6.50;2.45;;;13.20;99.90;;;;;;5092130;28;20101;-75
2022/07/14 05:01:02;;;;;;;8.77;2.35;;;13.20;99.90;;;;;;5090822;28;20098;-73
2022/07/14 05:06:02;;;;;;;10.10;2.10;;;13.20;99.90;;;;;;5272663;22;20530;-74
2022/07/14 05:08:28;;;;;;;6.40;2.30;;;13.30;99.90;;;;;;5015361;28;20520;-73
2022/07/14 05:10:53;;;;;;;7.90;2.15;;;13.30;99.90;;;;;;5029109;28;20049;-75
2022/07/14 05:13:19;;;;;;;7.03;1.98;;;13.30;99.90;;;;;;5014014;28;20049;-75
2022/07/14 05:15:45;;;;;;;9.88;2.78;;;13.30;99.90;;;;;;5031030;28;20120;-74
2022/07/14 05:18:10;;;;;;;10.50;2.53;;;14.10;99.90;;;;;;5030886;28;20042;-74
2022/07/14 05:20:36;;;;;;;10.43;2.53;;;13.30;99.90;;;;;;5030754;28;20128;-74
2022/07/14 05:23:03;;;;;;;8.60;2.67;;;13.30;99.90;;;;;;5009535;28;20045;-73
2022/07/14 05:25:29;;;;;;;8.63;3.00;;;13.40;99.90;;;;;;5029771;28;20051;-73
2022/07/14 05:27:54;;;;;;;9.60;2.22;;;13.40;99.90;;;;;;5030036;28;20132;-73
2022/07/14 05:30:20;;;;;;;10.63;2.25;;;13.40;99.90;;;;;;5031099;28;20041;-73
2022/07/14 05:32:46;;;;;;;7.13;1.90;;;14.70;99.90;;;;;;4994412;28;20129;-75
2022/07/14 05:35:11;;;;;;;9.07;2.17;;;13.50;99.90;;;;;;5030667;28;20477;-74
2022/07/14 05:37:37;;;;;;;9.48;1.77;;;13.80;99.90;;;;;;5023546;28;20060;-74
2022/07/14 05:40:03;;;;;;;7.53;2.38;;;12.90;99.90;;;;;;5018813;28;20045;-73
2022/07/14 05:42:29;;;;;;;8.05;2.08;;;13.60;99.90;;;;;;5012190;28;20041;-73
2022/07/14 05:44:55;;;;;;;8.85;2.92;;;12.70;99.90;;;;;;5030538;28;20054;-73
2022/07/14 05:47:20;;;;;;;10.80;4.57;;;13.70;99.90;;;;;;5005178;28;20412;-73
2022/07/14 05:49:46;;;;;;;9.93;2.60;;;13.70;99.90;;;;;;5026685;28;20041;-74
2022/07/14 05:52:15;;;;;;;9.93;2.40;;;13.80;99.90;;;;;;4324419;28;10000639;-71
2022/07/14 05:54:41;;;;;;;6.70;2.40;;;15.00;99.90;;;;;;5021388;28;20044;-72
2022/07/14 05:57:09;;;;;;;5.68;2.13;;;14.00;99.90;;;;;;5028904;28;20045;-72
2022/07/14 05:59:35;;;;;;;7.20;2.60;;;14.50;99.90;;;;;;5026579;28;20049;-72
2022/07/14 06:02:01;;;;;;;9.27;3.30;;;14.00;99.90;;;;;;5019477;28;20050;-73
2022/07/14 06:04:28;;;;;;;14.00;2.20;;;14.10;99.90;;;;;;5023470;28;20408;-74
2022/07/14 06:06:54;;;;;;;6.43;2.10;;;15.60;99.90;;;;;;5025434;28;20519;-72
2022/07/14 06:09:21;;;;;;;5.18;1.98;;;14.50;99.90;;;;;;5034170;28;20037;-74
2022/07/14 06:11:46;;;;;;;8.38;1.73;;;14.20;99.90;;;;;;5026338;28;20045;-73
2022/07/14 06:14:13;;;;;;;6.65;2.00;;;15.40;99.90;;;;;;5026926;28;20052;-72
2022/07/14 06:16:40;;;;;;;8.35;2.05;;;14.30;99.90;;;;;;5027603;28;20045;-72
2022/07/14 06:19:06;;;;;;;8.77;1.77;;;15.30;99.90;;;;;;5006576;28;20038;-72
2022/07/14 06:21:31;;;;;;;5.57;1.63;;;14.50;99.90;;;;;;5022319;28;20400;-72
2022/07/14 06:23:57;;;;;;;6.45;1.23;;;14.60;99.90;;;;;;5027327;28;20041;-79
2022/07/14 06:26:26;;;;;;;4.97;1.00;;;14.60;99.90;;;;;;5025391;28;20115;-74
2022/07/14 06:28:51;;;;;;;8.82;1.92;;;15.90;99.90;;;;;;5026877;28;20150;-73
2022/07/14 06:31:17;;;;;;;4.70;1.15;;;14.80;99.90;;;;;;5026193;28;20034;-73
2022/07/14 06:33:43;;;;;;;5.15;0.98;;;14.90;99.90;;;;;;5025918;28;20074;-73
2022/07/14 06:36:09;;;;;;;2.65;0.65;;;15.10;99.90;;;;;;5001995;28;20045;-73
2022/07/14 06:38:38;;;;;;;4.55;1.48;;;15.00;99.90;;;;;;5026301;28;20045;-72
2022/07/14 06:41:04;;;;;;;7.15;1.42;;;15.10;99.90;;;;;;5014068;28;20088;-71
2022/07/14 06:43:30;;;;;;;5.38;0.90;;;15.10;99.90;;;;;;5027702;28;20131;-72
2022/07/14 06:45:55;;;;;;;6.85;0.70;;;15.80;99.90;;;;;;5029093;28;20053;-81
2022/07/14 06:48:23;;;;;;;6.25;0.75;;;15.20;99.90;;;;;;5023550;28;20069;-76
2022/07/14 06:50:49;;;;;;;5.88;1.00;;;16.50;99.90;;;;;;5028667;28;20046;-76
2022/07/14 06:53:18;;;;;;;31.40;3.88;;;15.40;99.90;;;;;;5034809;28;20041;-76
2022/07/14 06:55:43;;;;;;;9.23;1.60;;;15.40;99.90;;;;;;5033116;28;20045;-75
2022/07/14 06:58:09;;;;;;;6.28;1.35;;;15.50;99.90;;;;;;5032862;28;20528;-71
2022/07/14 07:00:35;;;;;;;79.10;11.93;;;15.50;99.90;;;;;;5031768;28;20468;-72
2022/07/14 07:03:08;;;;;;;11.63;1.65;;;15.50;99.90;;;;;;5030094;28;20414;-72
2022/07/14 07:08:21;;;;;;;7.00;1.08;;;15.70;99.90;;;;;;5028113;28;20069;-72
2022/07/14 07:10:47;;;;;;;9.25;3.92;;;15.80;99.90;;;;;;5030053;28;20072;-71
2022/07/14 07:13:12;;;;;;;7.53;1.63;;;16.80;99.90;;;;;;5036521;28;20080;-71
2022/07/14 07:15:39;;;;;;;4.85;0.82;;;16.00;99.90;;;;;;5040310;28;20115;-70
2022/07/14 07:18:06;;;;;;;6.82;1.08;;;15.90;99.90;;;;;;5034660;28;20103;-71
2022/07/14 07:20:35;;;;;;;6.20;0.50;;;16.00;99.90;;;;;;5039493;28;20532;-71
2022/07/14 07:23:04;;;;;;;6.60;1.20;;;16.10;99.90;;;;;;5028875;28;20457;-72
2022/07/14 07:25:30;;;;;;;6.00;0.85;;;16.20;99.90;;;;;;5038284;28;20466;-71
2022/07/14 07:27:56;;;;;;;4.40;0.50;;;16.20;99.90;;;;;;5032396;28;20049;-72
2022/07/14 07:30:22;;;;;;;7.30;0.80;;;16.30;99.90;;;;;;5032766;28;20045;-72
2022/07/14 07:32:47;;;;;;;3.40;0.50;;;16.40;99.90;;;;;;5034260;28;20091;-73
2022/07/14 07:35:13;;;;;;;3.65;0.52;;;17.30;99.90;;;;;;5032608;28;20048;-71
2022/07/14 07:37:39;;;;;;;3.65;0.60;;;16.40;99.90;;;;;;5030539;28;20128;-71
2022/07/14 07:40:05;;;;;;;8.13;1.38;;;16.50;99.90;;;;;;5032981;28;20044;-73
2022/07/14 07:42:33;;;;;;;4.15;0.65;;;16.50;99.90;;;;;;5029544;28;20128;-71
2022/07/14 07:45:00;;;;;;;4.28;1.42;;;16.50;99.90;;;;;;5029493;28;20033;-71
2022/07/14 07:47:26;;;;;;;20.70;10.73;;;16.60;99.90;;;;;;5027983;28;20132;-70
2022/07/14 07:49:52;;;;;;;3.72;0.90;;;16.60;99.90;;;;;;5031407;28;20034;-72
2022/07/14 07:52:18;;;;;;;4.07;0.70;;;16.80;99.90;;;;;;5029704;28;20497;-71
2022/07/14 07:54:44;;;;;;;4.95;0.40;;;16.60;99.90;;;;;;5023258;28;20042;-72
2022/07/14 07:57:13;;;;;;;6.55;0.40;;;16.60;99.90;;;;;;5031997;28;20045;-71
2022/07/14 07:59:40;;;;;;;2.60;0.30;;;18.00;99.90;;;;;;5032632;28;20052;-74
2022/07/14 08:02:06;;;;;;;2.40;0.50;;;16.70;99.90;;;;;;5032539;28;20069;-72
2022/07/14 08:04:32;;;;;;;5.50;0.73;;;16.90;99.90;;;;;;5010830;28;20489;-73
2022/07/14 08:06:58;;;;;;;5.00;0.77;;;17.20;99.90;;;;;;5031665;28;20068;-72
2022/07/14 08:09:23;;;;;;;5.07;0.73;;;16.90;99.90;;;;;;5007974;28;20068;-75
2022/07/14 08:11:49;;;;;;;6.95;0.63;;;17.10;99.90;;;;;;5029290;28;20224;-76
2022/07/14 08:17:02;;;;;;;4.40;0.35;;;17.20;99.90;;;;;;5024309;28;20045;-71
2022/07/14 08:19:28;;;;;;;5.10;0.30;;;17.10;99.90;;;;;;5031384;28;20034;-73
2022/07/14 08:21:54;;;;;;;2.55;0.47;;;18.10;99.90;;;;;;5031126;28;20405;-76
2022/07/14 08:24:20;;;;;;;2.08;0.25;;;17.70;99.90;;;;;;5029223;28;20041;-77
2022/07/14 08:26:47;;;;;;;1.33;0.20;;;17.90;99.90;;;;;;5026299;28;20608;-73
2022/07/14 08:29:13;;;;;;;0.85;0.20;;;17.30;99.90;;;;;;5009286;28;20045;-75
2022/07/14 08:31:39;;;;;;;3.45;0.32;;;18.00;99.90;;;;;;5015043;28;20068;-76
2022/07/14 08:34:04;;;;;;;4.57;0.47;;;17.50;99.90;;;;;;5027689;28;20154;-73
2022/07/14 08:36:30;;;;;;;5.60;0.80;;;17.50;99.90;;;;;;5013002;28;20045;-73
2022/07/14 08:38:56;;;;;;;6.80;0.68;;;17.50;99.90;;;;;;5030681;28;20052;-73
2022/07/14 08:41:22;;;;;;;6.63;0.90;;;18.10;99.90;;;;;;5029011;28;20124;-73
2022/07/14 08:43:49;;;;;;;9.35;0.77;;;17.60;99.90;;;;;;5029013;28;20095;-74
2022/07/14 08:46:15;;;;;;;4.93;0.40;;;18.60;99.90;;;;;;5021120;28;20052;-74
2022/07/14 08:48:41;;;;;;;2.95;0.35;;;17.70;99.90;;;;;;5026287;28;20071;-75
2022/07/14 08:51:11;;;;;;;2.92;0.38;;;17.70;99.90;;;;;;5033455;28;20069;-79
2022/07/14 08:53:37;;;;;;;1.45;0.22;;;17.70;99.90;;;;;;5027362;28;20822;-75
2022/07/14 08:56:03;;;;;;;1.20;0.32;;;17.70;99.90;;;;;;5029405;28;20052;-74
2022/07/14 08:58:29;;;;;;;41.53;5.85;;;17.70;99.90;;;;;;5030561;28;20045;-73
2022/07/14 09:00:55;;;;;;;5.90;0.95;;;17.70;99.90;;;;;;5027979;28;20076;-74
2022/07/14 09:03:20;;;;;;;3.90;0.38;;;17.80;99.90;;;;;;5026041;28;20513;-76
2022/07/14 09:05:47;;;;;;;2.08;0.25;;;17.80;99.90;;;;;;5026929;28;20037;-76
2022/07/14 09:08:13;;;;;;;6.15;0.65;;;17.70;99.90;;;;;;5027186;28;20149;-79
2022/07/14 09:10:42;;;;;;;7.90;0.30;;;18.70;99.90;;;;;;5007307;28;20048;-75
2022/07/14 09:13:10;;;;;;;18.10;2.00;;;17.90;99.90;;;;;;5030993;28;20049;-75
2022/07/14 09:15:45;;;;;;;4.10;0.30;;;18.00;99.90;;;;;;5010287;28;20131;-75
2022/07/14 09:18:23;;;;;;;0.57;0.20;;;18.00;99.90;;;;;;5025538;28;20493;-74
2022/07/14 09:20:50;;;;;;;2.22;0.30;;;18.10;99.90;;;;;;5010726;28;20061;-74
2022/07/14 09:23:35;;;;;;;2.38;0.43;;;18.10;99.90;;;;;;5029208;28;20041;-75
2022/07/14 09:26:14;;;;;;;1.60;0.20;;;18.10;99.90;;;;;;5029518;28;20046;-75
2022/07/14 09:28:41;;;;;;;2.08;0.38;;;18.10;99.90;;;;;;5028777;28;20156;-74
2022/07/14 09:31:30;;;;;;;1.63;0.20;;;18.10;99.90;;;;;;5031143;28;20473;-74
2022/07/14 09:34:05;;;;;;;5.15;0.63;;;18.10;99.90;;;;;;5024885;28;20270;-75
2022/07/14 09:36:34;;;;;;;5.72;0.30;;;18.10;99.90;;;;;;5016755;28;20038;-74
2022/07/14 09:39:08;;;;;;;2.63;0.22;;;18.10;99.90;;;;;;5022802;28;20050;-74
2022/07/14 09:41:47;;;;;;;1.08;0.20;;;18.20;99.90;;;;;;5020506;28;20038;-72
2022/07/14 09:44:14;;;;;;;4.68;0.50;;;18.20;99.90;;;;;;5024334;28;20120;-72
2022/07/14 09:46:45;;;;;;;6.15;0.80;;;18.30;99.90;;;;;;5023983;28;20072;-74
2022/07/14 09:49:11;;;;;;;2.47;0.47;;;18.30;99.90;;;;;;5034915;28;20133;-74
2022/07/14 09:51:57;;;;;;;1.33;0.22;;;19.10;99.90;;;;;;5026313;28;20445;-74
2022/07/14 09:54:43;;;;;;;1.10;0.20;;;18.40;99.90;;;;;;5024652;28;20038;-74
2022/07/14 09:57:20;;;;;;;0.85;0.10;;;18.50;99.90;;;;;;5007456;28;20452;-71
2022/07/14 09:59:58;;;;;;;2.72;0.52;;;18.90;99.90;;;;;;5026392;28;20049;-74
2022/07/14 10:02:29;;;;;;;3.35;1.45;;;18.50;99.90;;;;;;5024196;28;20374;-74
2022/07/14 10:05:01;;;;;;;6.53;0.68;;;18.60;99.90;;;;;;5006342;28;20044;-74
2022/07/14 10:07:31;;;;;;;4.68;0.30;;;18.60;99.90;;;;;;5006886;28;20049;-74
2022/07/14 10:10:07;;;;;;;4.32;0.40;;;18.60;99.90;;;;;;5007987;28;20042;-73
2022/07/14 10:12:36;;;;;;;4.38;0.30;;;18.70;99.90;;;;;;5022865;28;20346;-72
2022/07/14 10:15:07;;;;;;;3.53;0.30;;;18.70;99.90;;;;;;5006314;28;20485;-72
2022/07/14 10:17:35;;;;;;;4.47;0.50;;;18.70;99.90;;;;;;5021995;28;20474;-73
2022/07/14 10:20:06;;;;;;;0.82;0.25;;;18.80;99.90;;;;;;5006675;28;20081;-74
2022/07/14 10:22:32;;;;;;;2.72;0.20;;;18.90;99.90;;;;;;5026488;28;20671;-73
2022/07/14 10:24:58;;;;;;;3.05;0.30;;;19.00;99.90;;;;;;5025778;28;20041;-76
2022/07/14 10:27:26;;;;;;;3.70;0.40;;;19.50;99.90;;;;;;5016055;28;20396;-75
2022/07/14 10:29:54;;;;;;;5.18;0.60;;;19.10;99.90;;;;;;5008534;28;20468;-74
2022/07/14 10:32:37;;;;;;;1.63;0.38;;;19.10;99.90;;;;;;5027051;28;20040;-76
2022/07/14 10:35:44;;;;;;;3.25;0.88;;;19.10;99.90;;;;;;4820192;28;10000959;-76
2022/07/14 10:38:19;;;;;;;2.22;0.22;;;19.10;99.90;;;;;;5019279;28;20262;-78
2022/07/14 10:41:09;;;;;;;4.57;0.90;;;19.20;99.90;;;;;;5019955;28;20064;-75
2022/07/14 10:44:17;;;;;;;1.80;0.30;;;19.30;99.90;;;;;;5026713;28;20041;-75
2022/07/14 10:46:45;;;;;;;3.28;0.20;;;19.30;99.90;;;;;;5016625;28;20048;-75
2022/07/14 10:49:14;;;;;;;1.75;0.30;;;19.30;99.90;;;;;;5005755;28;20405;-76
2022/07/14 10:51:50;;;;;;;2.17;0.30;;;19.30;99.90;;;;;;5019581;28;20055;-75
2022/07/14 10:54:24;;;;;;;2.22;0.13;;;19.30;99.90;;;;;;5024453;28;20565;-76
2022/07/14 10:57:06;;;;;;;4.68;0.60;;;19.30;99.90;;;;;;5006981;28;20426;-76
2022/07/14 10:59:34;;;;;;;2.00;0.32;;;19.20;99.90;;;;;;5021837;28;20471;-76
2022/07/14 11:02:14;;;;;;;2.67;0.30;;;19.10;99.90;;;;;;5024878;28;20064;-77
2022/07/14 11:05:11;;;;;;;2.17;0.30;;;19.10;99.90;;;;;;5005440;28;20080;-77
2022/07/14 11:08:07;;;;;;;2.40;0.30;;;19.10;99.90;;;;;;5018071;28;20488;-73
2022/07/14 11:10:52;;;;;;;3.30;0.30;;;19.30;99.90;;;;;;4657720;28;10000248;-75
2022/07/14 11:13:18;;;;;;;2.10;0.30;;;19.60;99.90;;;;;;5006121;28;20045;-75
2022/07/14 11:16:03;;;;;;;2.97;0.55;;;19.20;99.90;;;;;;5006575;28;20041;-74
2022/07/14 11:18:35;;;;;;;2.28;0.60;;;19.90;99.90;;;;;;5008072;28;20532;-74
2022/07/14 11:21:11;;;;;;;2.05;0.60;;;19.30;99.90;;;;;;5024785;28;20068;-74
2022/07/14 11:23:48;;;;;;;2.95;0.30;;;19.20;99.90;;;;;;5014387;28;20038;-75
2022/07/14 11:26:47;;;;;;;1.10;0.30;;;19.20;99.90;;;;;;5025902;28;20379;-74
2022/07/14 11:29:13;;;;;;;2.10;0.20;;;19.20;99.90;;;;;;5022517;28;20111;-76
2022/07/14 11:31:49;;;;;;;3.05;0.38;;;19.20;99.90;;;;;;5026809;28;20033;-78
2022/07/14 11:37:09;;;;;;;4.35;0.80;;;19.40;99.90;;;;;;5026258;28;20052;-73
2022/07/14 11:39:44;;;;;;;3.50;0.82;;;19.50;99.90;;;;;;5025785;28;20164;-75
2022/07/14 11:42:14;;;;;;;1.60;0.32;;;19.60;99.90;;;;;;5009589;28;20080;-74
2022/07/14 11:44:40;;;;;;;2.30;0.20;;;19.70;99.90;;;;;;5006505;28;20070;-76
2022/07/14 11:47:08;;;;;;;2.38;0.30;;;19.80;99.90;;;;;;5036128;28;20068;-75
2022/07/14 11:49:36;;;;;;;2.55;0.50;;;20.00;99.90;;;;;;5019447;28;20481;-75
2022/07/14 11:52:04;;;;;;;2.80;0.20;;;20.30;99.90;;;;;;5036306;28;20037;-76
2022/07/14 11:54:31;;;;;;;1.77;0.30;;;20.10;99.90;;;;;;5010974;28;20041;-77
2022/07/14 11:57:03;;;;;;;2.70;0.40;;;20.30;99.90;;;;;;4995509;28;20098;-76
2022/07/14 11:59:30;;;;;;;6.13;0.90;;;20.40;99.90;;;;;;5008158;28;20033;-78
2022/07/14 12:02:17;;;;;;;3.10;0.32;;;21.10;99.90;;;;;;5019605;28;20162;-81
2022/07/14 12:04:57;;;;;;;2.33;0.30;;;20.50;99.90;;;;;;5006125;28;20037;-80
2022/07/14 12:07:44;;;;;;;2.03;0.10;;;20.70;99.90;;;;;;5027271;28;20140;-79
2022/07/14 12:10:11;;;;;;;2.22;0.20;;;21.20;99.90;;;;;;5025116;28;20041;-83
2022/07/14 12:12:45;;;;;;;2.40;0.40;;;20.70;99.90;;;;;;5006135;28;20044;-76
2022/07/14 12:15:24;;;;;;;5.05;0.10;;;20.70;99.90;;;;;;5032288;28;20455;-76
2022/07/14 12:17:53;;;;;;;2.42;0.50;;;20.60;99.90;;;;;;5009288;28;20049;-75
2022/07/14 12:20:20;;;;;;;3.10;0.30;;;20.50;99.90;;;;;;5014939;28;20046;-76
2022/07/14 12:22:54;;;;;;;3.72;0.40;;;20.30;99.90;;;;;;5031522;28;20068;-75
2022/07/14 12:25:27;;;;;;;4.68;0.47;;;20.40;99.90;;;;;;5027011;28;20038;-75
2022/07/14 12:27:58;;;;;;;3.58;0.50;;;20.40;99.90;;;;;;5005308;28;20088;-76
2022/07/14 12:30:23;;;;;;;1.77;0.50;;;20.30;99.90;;;;;;5028690;28;20041;-75
2022/07/14 12:32:53;;;;;;;2.35;0.52;;;20.10;99.90;;;;;;5026633;28;20037;-75
2022/07/14 12:35:21;;;;;;;3.60;0.60;;;20.20;99.90;;;;;;5027667;28;20042;-76
2022/07/14 12:37:48;;;;;;;8.75;0.70;;;20.20;99.90;;;;;;5029171;28;20087;-75
2022/07/14 12:40:14;;;;;;;1.67;0.40;;;20.20;99.90;;;;;;5027834;28;20485;-76
2022/07/14 12:42:41;;;;;;;4.75;0.30;;;20.20;99.90;;;;;;5008217;28;20492;-76
2022/07/14 12:45:07;;;;;;;2.47;0.68;;;20.80;99.90;;;;;;5030356;28;20030;-78
2022/07/14 12:48:00;;;;;;;3.58;0.65;;;20.10;99.90;;;;;;5030210;28;20053;-78
2022/07/14 12:50:28;;;;;;;1.67;0.10;;;20.00;99.90;;;;;;5028792;28;20085;-76
2022/07/14 12:52:57;;;;;;;3.63;0.40;;;20.00;99.90;;;;;;4332765;28;10000686;-76
2022/07/14 12:55:38;;;;;;;2.95;0.30;;;20.30;99.90;;;;;;5023512;28;20053;-75
2022/07/14 12:58:09;;;;;;;1.90;0.40;;;20.20;99.90;;;;;;5018741;28;20056;-76
2022/07/14 13:00:36;;;;;;;2.72;0.30;;;20.10;99.90;;;;;;5025930;28;20037;-77
2022/07/14 13:03:14;;;;;;;0.93;0.40;;;20.00;99.90;;;;;;5030036;28;20124;-76
2022/07/14 13:05:58;;;;;;;2.28;0.28;;;19.90;99.90;;;;;;5022397;28;20064;-74
2022/07/14 13:08:27;;;;;;;6.10;1.77;;;19.90;99.90;;;;;;5025520;28;20085;-75